Time;durP1;ratioP1;P1;durP2;ratioP2;P2;SDS_P1;SDS_P2;PMS_P1;PMS_P2;Temp;Humidity;BMP_temperature;BMP_pressure;BME280_temperature;BME280_humidity;BME280_pressure;Samples;Min_cycle;Max_cycle;Signal;HPM_P1;HPM_P2
2021/05/30 00:01:08;;;;;;;3.93;2.13;;;21.80;35.70;;;;;;8294002;28;20089;-45
2021/05/30 00:05:10;;;;;;;4.10;2.47;;;21.70;35.70;;;;;;8296168;28;20045;-45
2021/05/30 00:09:11;;;;;;;4.43;2.65;;;21.70;35.70;;;;;;8293712;28;20042;-46
2021/05/30 00:13:12;;;;;;;3.47;2.38;;;21.70;35.70;;;;;;8293554;28;20125;-46
2021/05/30 00:17:14;;;;;;;3.20;2.30;;;21.70;35.70;;;;;;8274486;28;20036;-45
2021/05/30 00:21:14;;;;;;;3.60;2.38;;;21.70;35.70;;;;;;8295281;28;20472;-45
2021/05/30 00:25:15;;;;;;;4.27;2.33;;;21.70;36.30;;;;;;8330083;28;20103;-45
2021/05/30 00:29:15;;;;;;;2.93;2.20;;;21.70;35.80;;;;;;8298819;28;20097;-46
2021/05/30 00:33:16;;;;;;;2.20;2.00;;;21.70;35.80;;;;;;8293626;28;20371;-45
2021/05/30 00:37:16;;;;;;;3.27;2.33;;;21.70;35.80;;;;;;8298243;28;20029;-44
2021/05/30 00:41:17;;;;;;;2.70;2.20;;;21.70;35.80;;;;;;8327732;28;20449;-45
2021/05/30 00:45:19;;;;;;;2.75;2.35;;;21.60;35.80;;;;;;8325371;28;20079;-45
2021/05/30 00:49:20;;;;;;;3.20;2.10;;;21.60;35.80;;;;;;8306843;28;20023;-46
2021/05/30 00:53:21;;;;;;;3.00;2.10;;;21.60;35.90;;;;;;8291238;28;20030;-45
2021/05/30 00:57:21;;;;;;;3.80;3.00;;;21.60;35.80;;;;;;8296521;28;20042;-45
2021/05/30 01:01:22;;;;;;;3.23;2.10;;;21.60;35.90;;;;;;8326944;28;20136;-45
2021/05/30 01:05:22;;;;;;;3.30;2.07;;;21.60;35.90;;;;;;8329749;28;20045;-45
2021/05/30 01:09:25;;;;;;;2.23;1.90;;;21.60;35.80;;;;;;8330797;28;20107;-45
2021/05/30 01:13:27;;;;;;;3.17;2.22;;;21.60;35.90;;;;;;8331274;28;20032;-44
2021/05/30 01:17:29;;;;;;;3.33;2.20;;;21.60;35.90;;;;;;8334157;28;20071;-46
2021/05/30 01:21:30;;;;;;;3.05;2.05;;;21.60;35.90;;;;;;8330918;28;20046;-47
2021/05/30 01:25:30;;;;;;;2.43;1.90;;;21.50;35.90;;;;;;8330823;28;20398;-45
2021/05/30 01:29:31;;;;;;;2.10;1.83;;;21.50;35.90;;;;;;8328747;28;20034;-45
2021/05/30 01:33:31;;;;;;;3.23;2.00;;;21.50;35.90;;;;;;8335359;28;20036;-45
2021/05/30 01:37:32;;;;;;;2.33;1.77;;;21.50;35.90;;;;;;8330612;28;20383;-45
2021/05/30 01:41:33;;;;;;;2.97;2.03;;;21.50;35.90;;;;;;8308078;28;20392;-45
2021/05/30 01:45:34;;;;;;;3.53;2.20;;;21.40;35.80;;;;;;8309120;28;20137;-45
2021/05/30 01:49:36;;;;;;;;;;;21.40;35.90;;;;;;8330242;28;20096;-45
2021/05/30 01:53:42;;;;;;;2.33;1.70;;;21.50;36.00;;;;;;8333046;28;19948;-45
2021/05/30 01:57:48;;;;;;;2.60;1.95;;;21.40;35.90;;;;;;8329564;28;20410;-45
2021/05/30 02:01:50;;;;;;;2.40;1.70;;;21.40;35.90;;;;;;8327758;28;20083;-44
2021/05/30 02:05:52;;;;;;;2.47;1.65;;;21.40;35.90;;;;;;8329645;28;20044;-45
2021/05/30 02:09:53;;;;;;;4.22;2.10;;;21.40;35.90;;;;;;8334089;28;20590;-45
2021/05/30 02:13:56;;;;;;;2.07;1.90;;;21.40;36.00;;;;;;8325975;28;20037;-46
2021/05/30 02:17:57;;;;;;;2.63;1.88;;;21.40;36.00;;;;;;8309478;28;20129;-45
2021/05/30 02:22:00;;;;;;;2.87;2.10;;;21.40;36.00;;;;;;8297379;28;20037;-45
2021/05/30 02:26:03;;;;;;;3.42;1.92;;;21.40;36.00;;;;;;8296314;28;20062;-45
2021/05/30 02:30:05;;;;;;;2.95;2.28;;;21.30;35.90;;;;;;8333513;28;20558;-45
2021/05/30 02:34:05;;;;;;;1.67;1.50;;;21.40;36.00;;;;;;8304165;28;20038;-45
2021/05/30 02:38:06;;;;;;;3.07;2.00;;;21.30;36.50;;;;;;8309843;28;20049;-45
2021/05/30 02:42:07;;;;;;;2.43;1.90;;;21.30;36.00;;;;;;8327845;28;20029;-45
2021/05/30 02:46:08;;;;;;;;;;;21.30;36.00;;;;;;8333451;28;20057;-45
2021/05/30 02:50:09;;;;;;;1.83;1.63;;;21.30;36.00;;;;;;8326549;28;19913;-47
2021/05/30 02:54:10;;;;;;;1.80;1.48;;;21.30;36.00;;;;;;8327702;28;20124;-46
2021/05/30 02:58:10;;;;;;;2.03;1.50;;;21.30;36.00;;;;;;8319506;28;20046;-44
2021/05/30 03:02:11;;;;;;;2.70;1.83;;;21.20;36.00;;;;;;8296716;28;20088;-47
2021/05/30 03:06:11;;;;;;;2.07;1.70;;;21.20;36.00;;;;;;8296676;28;20030;-44
2021/05/30 03:10:12;;;;;;;2.10;1.73;;;21.20;36.00;;;;;;8318136;28;20041;-45
2021/05/30 03:14:13;;;;;;;4.47;1.83;;;21.20;36.00;;;;;;8312933;28;20066;-45
2021/05/30 03:18:13;;;;;;;2.23;1.67;;;21.20;36.00;;;;;;8297739;28;20537;-48
2021/05/30 03:22:14;;;;;;;1.83;1.53;;;21.20;36.10;;;;;;8332058;28;20049;-47
2021/05/30 03:26:15;;;;;;;2.73;1.90;;;21.20;36.10;;;;;;8324486;28;20052;-46
2021/05/30 03:30:16;;;;;;;1.97;1.57;;;21.20;36.10;;;;;;8311569;28;20044;-46
2021/05/30 03:34:16;;;;;;;2.38;1.85;;;21.10;36.00;;;;;;8301164;28;20107;-45
2021/05/30 03:38:19;;;;;;;2.50;1.67;;;21.20;36.00;;;;;;8329689;28;20030;-45
2021/05/30 03:42:23;;;;;;;2.17;1.73;;;21.10;36.00;;;;;;8297111;28;20033;-45
2021/05/30 03:46:23;;;;;;;1.70;1.60;;;21.10;36.00;;;;;;8294433;28;20569;-44
2021/05/30 03:50:24;;;;;;;1.90;1.60;;;21.10;36.00;;;;;;8292989;28;20029;-44
2021/05/30 03:54:25;;;;;;;2.63;1.60;;;21.10;36.00;;;;;;8294677;28;20503;-45
2021/05/30 03:58:25;;;;;;;1.37;1.20;;;21.10;36.00;;;;;;8297908;28;20034;-44
2021/05/30 04:02:26;;;;;;;2.17;1.60;;;21.10;35.90;;;;;;8316654;28;20128;-45
2021/05/30 04:06:26;;;;;;;1.77;1.43;;;21.10;36.00;;;;;;8326011;28;20029;-45
2021/05/30 04:10:27;;;;;;;1.83;1.33;;;21.10;36.00;;;;;;8325230;28;20040;-46
2021/05/30 04:14:28;;;;;;;1.87;1.70;;;21.10;35.90;;;;;;8328570;28;20033;-46
2021/05/30 04:18:28;;;;;;;1.87;1.40;;;21.10;35.90;;;;;;8298467;28;20049;-46
2021/05/30 04:22:29;;;;;;;1.77;1.40;;;21.10;35.90;;;;;;8294218;28;20382;-45
2021/05/30 04:26:29;;;;;;;2.23;1.73;;;21.10;35.90;;;;;;8292224;28;20065;-45
2021/05/30 04:30:30;;;;;;;1.60;1.27;;;21.10;36.00;;;;;;8297185;28;20038;-45
2021/05/30 04:34:30;;;;;;;1.83;1.40;;;21.10;36.00;;;;;;8292946;28;20456;-45
2021/05/30 04:38:31;;;;;;;1.70;1.60;;;21.10;35.90;;;;;;8290399;28;20049;-45
2021/05/30 04:42:32;;;;;;;2.23;1.50;;;21.10;35.90;;;;;;8292659;28;20038;-45
2021/05/30 04:46:32;;;;;;;1.55;1.30;;;21.10;35.90;;;;;;8294972;28;20044;-45
2021/05/30 04:50:33;;;;;;;1.50;1.40;;;21.10;35.90;;;;;;8327895;28;20053;-46
2021/05/30 04:54:34;;;;;;;2.37;1.43;;;21.10;36.00;;;;;;8325132;28;20482;-45
2021/05/30 04:58:36;;;;;;;1.50;1.40;;;21.00;35.90;;;;;;8309618;28;20069;-45
2021/05/30 05:02:36;;;;;;;;;;;21.00;35.90;;;;;;8291209;28;20041;-47
2021/05/30 05:06:37;;;;;;;1.83;1.50;;;21.00;35.90;;;;;;8296574;28;20380;-45
2021/05/30 05:10:37;;;;;;;2.30;1.60;;;21.00;36.00;;;;;;8320972;28;20049;-45
2021/05/30 05:14:38;;;;;;;1.67;1.50;;;21.00;36.00;;;;;;8322809;28;20103;-46
2021/05/30 05:18:39;;;;;;;1.67;1.35;;;21.00;35.90;;;;;;8315368;28;20049;-45
2021/05/30 05:22:40;;;;;;;1.33;1.20;;;21.00;35.90;;;;;;8291617;28;20367;-45
2021/05/30 05:26:40;;;;;;;1.80;1.30;;;21.10;35.70;;;;;;8327716;28;20028;-45
2021/05/30 05:30:41;;;;;;;1.80;1.20;;;21.30;35.40;;;;;;8324748;28;20069;-46
2021/05/30 05:34:42;;;;;;;2.75;1.40;;;21.40;35.30;;;;;;8309763;28;20037;-45
2021/05/30 05:38:43;;;;;;;1.50;1.27;;;21.50;35.10;;;;;;8296142;28;20502;-46
2021/05/30 05:42:44;;;;;;;1.77;1.45;;;21.50;35.00;;;;;;8328765;28;20088;-47
2021/05/30 05:46:45;;;;;;;1.60;1.33;;;21.50;35.00;;;;;;8295795;28;20418;-45
2021/05/30 05:50:46;;;;;;;2.10;1.53;;;21.50;35.00;;;;;;8298532;28;20049;-46
2021/05/30 05:54:49;;;;;;;1.52;1.25;;;21.40;35.10;;;;;;8305131;28;20038;-47
2021/05/30 05:58:50;;;;;;;1.20;1.10;;;21.40;35.20;;;;;;8332812;28;20402;-47
2021/05/30 06:02:51;;;;;;;2.58;1.23;;;21.40;35.30;;;;;;8329208;28;20494;-48
2021/05/30 06:06:51;;;;;;;1.45;1.35;;;21.30;35.30;;;;;;8308226;28;20041;-46
2021/05/30 06:10:52;;;;;;;3.40;1.37;;;21.30;35.40;;;;;;8306437;28;20391;-48
2021/05/30 06:14:52;;;;;;;1.40;1.30;;;21.30;35.40;;;;;;8327472;28;20029;-45
2021/05/30 06:18:54;;;;;;;1.50;1.17;;;21.20;35.40;;;;;;8300979;28;20050;-46
2021/05/30 06:22:56;;;;;;;1.50;1.40;;;21.20;35.50;;;;;;8320043;28;20043;-46
2021/05/30 06:26:57;;;;;;;1.50;1.30;;;21.20;35.50;;;;;;8314857;28;20053;-47
2021/05/30 06:30:57;;;;;;;3.22;1.40;;;21.20;35.60;;;;;;8297418;28;20045;-46
2021/05/30 06:34:58;;;;;;;1.33;1.17;;;21.20;35.60;;;;;;8299072;28;20483;-44
2021/05/30 06:38:58;;;;;;;2.97;1.27;;;21.20;35.60;;;;;;8324815;28;20052;-45
2021/05/30 06:42:59;;;;;;;1.70;1.10;;;21.20;35.60;;;;;;8328577;28;20037;-45
2021/05/30 06:47:00;;;;;;;1.30;1.20;;;21.20;35.60;;;;;;8317878;28;20157;-45
2021/05/30 06:51:13;;;;;;;1.47;1.17;;;21.10;35.60;;;;;;8299921;28;20121;-45
2021/05/30 06:55:14;;;;;;;1.58;1.40;;;21.10;35.60;;;;;;8332533;28;20038;-46
2021/05/30 06:59:14;;;;;;;1.30;1.20;;;21.10;35.60;;;;;;8301917;28;20088;-46
2021/05/30 07:03:15;;;;;;;1.43;1.17;;;21.10;35.60;;;;;;8295481;28;20034;-46
2021/05/30 07:07:15;;;;;;;1.20;1.10;;;21.10;35.60;;;;;;8295878;28;20029;-46
2021/05/30 07:11:16;;;;;;;1.30;1.20;;;21.10;35.70;;;;;;8297802;28;20493;-45
2021/05/30 07:15:16;;;;;;;1.58;1.48;;;21.10;35.60;;;;;;8322864;28;20116;-45
2021/05/30 07:19:17;;;;;;;1.30;1.20;;;21.10;35.70;;;;;;8327477;28;20126;-46
2021/05/30 07:23:18;;;;;;;1.97;1.33;;;21.10;35.70;;;;;;8325123;28;20044;-46
2021/05/30 07:27:19;;;;;;;1.35;1.25;;;21.10;35.80;;;;;;8331922;28;20056;-46
2021/05/30 07:31:19;;;;;;;2.37;1.30;;;21.10;35.80;;;;;;8326982;28;20048;-46
2021/05/30 07:35:20;;;;;;;1.53;1.20;;;21.10;35.80;;;;;;8304047;28;20030;-47
2021/05/30 07:39:20;;;;;;;1.57;1.30;;;21.10;35.80;;;;;;8305627;28;20064;-46
2021/05/30 07:43:21;;;;;;;1.90;1.53;;;21.10;35.80;;;;;;8324996;28;20505;-46
2021/05/30 07:47:23;;;;;;;1.73;1.50;;;21.10;35.80;;;;;;8296682;28;20034;-47
2021/05/30 07:51:24;;;;;;;1.35;1.25;;;21.00;35.80;;;;;;8320211;28;20034;-45
2021/05/30 07:55:24;;;;;;;1.77;1.53;;;21.10;35.90;;;;;;8326036;28;20509;-45
2021/05/30 07:59:25;;;;;;;1.87;1.37;;;21.10;35.90;;;;;;8324058;28;20038;-45
2021/05/30 08:03:25;;;;;;;1.53;1.33;;;21.10;35.90;;;;;;8330609;28;20422;-45
2021/05/30 08:07:26;;;;;;;1.27;1.17;;;21.20;36.00;;;;;;8325862;28;20032;-48
2021/05/30 08:11:27;;;;;;;2.57;1.53;;;21.20;35.90;;;;;;8305424;28;20068;-46
2021/05/30 08:15:28;;;;;;;2.33;1.67;;;21.20;35.90;;;;;;8303362;28;20114;-45
2021/05/30 08:19:28;;;;;;;1.30;1.20;;;21.20;35.90;;;;;;8327752;28;20045;-46
2021/05/30 08:23:29;;;;;;;2.03;1.30;;;21.20;35.90;;;;;;8325635;28;20034;-46
2021/05/30 08:27:29;;;;;;;1.83;1.40;;;21.20;35.90;;;;;;8303043;28;20390;-46
2021/05/30 08:31:30;;;;;;;2.23;1.70;;;21.20;35.90;;;;;;8306256;28;20045;-47
2021/05/30 08:35:30;;;;;;;1.53;1.43;;;21.30;35.90;;;;;;8323850;28;20367;-46
2021/05/30 08:39:31;;;;;;;1.93;1.60;;;21.30;35.90;;;;;;8329986;28;20041;-46
2021/05/30 08:43:32;;;;;;;2.85;1.67;;;21.30;35.90;;;;;;8298642;28;20044;-47
2021/05/30 08:47:33;;;;;;;2.28;1.67;;;21.30;35.80;;;;;;8291164;28;20044;-46
2021/05/30 08:51:38;;;;;;;1.57;1.33;;;21.30;35.80;;;;;;8293312;28;20044;-46
2021/05/30 08:55:39;;;;;;;2.20;1.45;;;21.30;35.90;;;;;;8296730;28;20030;-47
2021/05/30 08:59:55;;;;;;;1.63;1.30;;;21.40;35.90;;;;;;8321458;28;20045;-47
2021/05/30 09:04:07;;;;;;;1.90;1.40;;;21.40;35.90;;;;;;8302240;28;20487;-47
2021/05/30 09:08:08;;;;;;;2.35;1.50;;;21.40;35.90;;;;;;8291508;28;20026;-47
2021/05/30 09:12:29;;;;;;;2.28;1.50;;;21.40;35.80;;;;;;8297566;28;20026;-46
2021/05/30 09:16:55;;;;;;;2.47;1.55;;;21.40;35.80;;;;;;8329221;28;20128;-46
2021/05/30 09:20:57;;;;;;;2.22;1.70;;;21.50;35.80;;;;;;8284230;28;20057;-46
2021/05/30 09:25:19;;;;;;;2.00;1.50;;;21.50;35.70;;;;;;8298540;28;20069;-46
2021/05/30 09:29:19;;;;;;;1.55;1.45;;;21.50;35.70;;;;;;8296761;28;20026;-47
2021/05/30 09:33:23;;;;;;;3.23;1.90;;;21.50;35.70;;;;;;8289015;28;20044;-48
2021/05/30 09:37:23;;;;;;;2.08;1.60;;;21.60;35.70;;;;;;8335144;28;20121;-46
2021/05/30 09:41:24;;;;;;;2.27;1.50;;;21.60;35.80;;;;;;8296851;28;20046;-46
2021/05/30 09:45:24;;;;;;;2.67;1.93;;;21.60;35.80;;;;;;8298331;28;20038;-46
2021/05/30 09:49:25;;;;;;;2.87;1.73;;;21.60;35.70;;;;;;8309838;28;20128;-46
2021/05/30 09:53:25;;;;;;;2.97;1.87;;;21.70;35.70;;;;;;8326626;28;20071;-47
2021/05/30 09:57:26;;;;;;;2.43;1.70;;;21.70;35.70;;;;;;8301579;28;20384;-46
2021/05/30 10:01:27;;;;;;;2.07;1.73;;;21.70;35.60;;;;;;8323300;28;20064;-47
2021/05/30 10:05:28;;;;;;;2.60;1.73;;;21.80;35.70;;;;;;8312307;28;20451;-47
2021/05/30 10:09:29;;;;;;;2.72;1.80;;;21.80;35.60;;;;;;8297612;28;20045;-48
2021/05/30 10:13:30;;;;;;;2.58;1.80;;;21.80;35.70;;;;;;8301535;28;20088;-46
2021/05/30 10:17:32;;;;;;;1.88;1.55;;;21.80;35.60;;;;;;8324286;28;20502;-45
2021/05/30 10:21:32;;;;;;;2.55;1.90;;;21.80;35.60;;;;;;8309387;28;20046;-46
2021/05/30 10:25:36;;;;;;;2.93;2.00;;;21.90;35.60;;;;;;8297513;28;20034;-46
2021/05/30 10:29:36;;;;;;;2.58;1.70;;;21.90;35.60;;;;;;8295768;28;20030;-46
2021/05/30 10:33:37;;;;;;;3.37;2.03;;;21.90;35.60;;;;;;8299527;28;20049;-46
2021/05/30 10:37:42;;;;;;;1.87;1.67;;;21.90;35.50;;;;;;8319775;28;20469;-46
2021/05/30 10:42:06;;;;;;;2.45;1.80;;;22.00;35.50;;;;;;8327015;28;20049;-47
2021/05/30 10:46:08;;;;;;;2.90;1.63;;;22.00;35.50;;;;;;8320699;28;20030;-47
2021/05/30 10:50:13;;;;;;;3.05;1.80;;;22.00;35.50;;;;;;8298528;28;20486;-46
2021/05/30 10:54:14;;;;;;;2.20;1.42;;;22.00;35.50;;;;;;8327737;28;20508;-47
2021/05/30 10:58:16;;;;;;;1.97;1.57;;;22.00;35.50;;;;;;8328132;28;20037;-47
2021/05/30 11:02:17;;;;;;;2.20;1.77;;;22.00;35.50;;;;;;8325805;28;20033;-47
2021/05/30 11:06:41;;;;;;;3.13;1.77;;;22.10;35.40;;;;;;8328073;28;20025;-47
2021/05/30 11:10:49;;;;;;;2.75;2.05;;;22.10;35.40;;;;;;8330609;28;20072;-47
2021/05/30 11:15:11;;;;;;;3.53;1.88;;;22.10;35.40;;;;;;8327425;28;20406;-47
2021/05/30 11:19:17;;;;;;;2.35;1.60;;;22.10;35.40;;;;;;8304126;28;20065;-47
2021/05/30 11:23:19;;;;;;;1.92;1.63;;;22.10;35.30;;;;;;8294191;28;20125;-47
2021/05/30 11:27:20;;;;;;;3.30;1.90;;;22.20;35.40;;;;;;8299488;28;20107;-47
2021/05/30 11:31:21;;;;;;;3.47;2.20;;;22.20;35.40;;;;;;8332046;28;20041;-47
2021/05/30 11:35:21;;;;;;;2.55;1.67;;;22.20;35.30;;;;;;8324678;28;20144;-48
2021/05/30 11:39:22;;;;;;;3.03;2.13;;;22.20;35.50;;;;;;8308893;28;20056;-48
2021/05/30 11:43:22;;;;;;;2.70;2.00;;;22.30;35.50;;;;;;8295036;28;20038;-46
2021/05/30 11:47:23;;;;;;;3.13;1.70;;;22.30;35.50;;;;;;8296582;28;20529;-46
2021/05/30 11:51:23;;;;;;;3.17;2.27;;;22.30;35.50;;;;;;8325263;28;20060;-47
2021/05/30 11:55:24;;;;;;;3.80;2.20;;;22.30;35.50;;;;;;8326550;28;20099;-47
2021/05/30 11:59:31;;;;;;;3.57;1.83;;;22.30;35.50;;;;;;8324536;28;20037;-46
2021/05/30 12:03:32;;;;;;;2.25;1.70;;;22.30;35.80;;;;;;8326578;28;20307;-47
2021/05/30 12:07:33;;;;;;;3.10;2.10;;;22.30;35.40;;;;;;8330497;28;20084;-47
2021/05/30 12:11:33;;;;;;;4.30;2.40;;;22.30;35.40;;;;;;8298432;28;20034;-49
2021/05/30 12:15:34;;;;;;;3.63;2.10;;;22.40;35.30;;;;;;8310149;28;20272;-47
2021/05/30 12:19:44;;;;;;;3.73;2.30;;;22.40;35.30;;;;;;8324502;28;20132;-46
2021/05/30 12:23:45;;;;;;;3.20;2.20;;;22.40;35.30;;;;;;8329037;28;20108;-48
2021/05/30 12:27:46;;;;;;;3.05;2.08;;;22.40;35.30;;;;;;8324944;28;20486;-47
2021/05/30 12:31:47;;;;;;;3.85;2.83;;;22.40;35.30;;;;;;8303247;28;20054;-47
2021/05/30 12:35:53;;;;;;;3.67;2.28;;;22.40;35.30;;;;;;8304492;28;20043;-46
2021/05/30 12:39:59;;;;;;;3.38;2.13;;;22.50;35.30;;;;;;8324721;28;20195;-46
2021/05/30 12:44:09;;;;;;;3.40;2.42;;;22.50;35.30;;;;;;8328023;28;20096;-46
2021/05/30 12:48:10;;;;;;;4.70;2.65;;;22.50;35.30;;;;;;8297590;28;20045;-46
2021/05/30 12:52:16;;;;;;;4.07;2.63;;;22.50;35.30;;;;;;8310376;28;20033;-46
2021/05/30 12:56:19;;;;;;;4.32;2.70;;;22.50;35.20;;;;;;8314120;28;20030;-47
2021/05/30 13:00:35;;;;;;;4.50;2.47;;;22.50;35.10;;;;;;8294590;28;20057;-46
2021/05/30 13:04:45;;;;;;;4.80;2.78;;;22.50;35.00;;;;;;8296612;28;20030;-47
2021/05/30 13:08:58;;;;;;;4.13;3.07;;;22.60;35.10;;;;;;8317034;28;20025;-47
2021/05/30 13:12:58;;;;;;;5.32;3.13;;;22.60;35.10;;;;;;8323843;28;20295;-47
2021/05/30 13:17:21;;;;;;;5.63;3.33;;;22.60;35.10;;;;;;8315035;28;20176;-46
2021/05/30 13:21:26;;;;;;;8.15;4.38;;;22.60;35.00;;;;;;8293732;28;20083;-46
2021/05/30 13:25:37;;;;;;;8.48;4.50;;;22.60;35.00;;;;;;8329106;28;20095;-46
2021/05/30 13:29:42;;;;;;;8.13;4.60;;;22.60;35.00;;;;;;8295747;28;20053;-46
2021/05/30 13:33:46;;;;;;;9.55;5.20;;;22.60;34.90;;;;;;8292595;28;20057;-46
2021/05/30 13:37:46;;;;;;;11.63;5.82;;;22.60;34.90;;;;;;8298078;28;20438;-47
2021/05/30 13:41:47;;;;;;;11.73;6.27;;;22.70;34.90;;;;;;8328642;28;20072;-46
2021/05/30 13:45:48;;;;;;;12.97;6.70;;;22.70;34.90;;;;;;8323847;28;20045;-46
2021/05/30 13:49:53;;;;;;;12.27;6.72;;;22.70;34.80;;;;;;8322559;28;20042;-46
2021/05/30 13:53:54;;;;;;;13.73;7.35;;;22.70;35.50;;;;;;8323748;28;20482;-47
2021/05/30 13:57:55;;;;;;;13.48;7.70;;;22.70;34.90;;;;;;8320790;28;20038;-49
2021/05/30 14:01:55;;;;;;;14.20;6.87;;;22.70;35.00;;;;;;8294247;28;20108;-46
2021/05/30 14:05:56;;;;;;;15.67;7.57;;;22.70;34.90;;;;;;8317992;28;20034;-46
2021/05/30 14:09:57;;;;;;;16.15;8.02;;;22.80;34.90;;;;;;8311257;28;20034;-48
2021/05/30 14:13:57;;;;;;;17.03;9.07;;;22.80;34.80;;;;;;8296419;28;20065;-46
2021/05/30 14:17:58;;;;;;;17.87;9.53;;;22.70;35.20;;;;;;8301114;28;20418;-48
2021/05/30 14:21:58;;;;;;;17.77;9.07;;;22.80;34.70;;;;;;8326572;28;20493;-47
2021/05/30 14:26:00;;;;;;;19.53;9.67;;;22.80;34.70;;;;;;8327217;28;20878;-46
2021/05/30 14:30:00;;;;;;;19.58;9.60;;;22.80;34.70;;;;;;8328399;28;20072;-46
2021/05/30 14:34:02;;;;;;;17.17;9.82;;;22.80;34.50;;;;;;8329988;28;20029;-46
2021/05/30 14:38:02;;;;;;;19.85;10.18;;;22.80;34.50;;;;;;8298964;28;20391;-47
2021/05/30 14:42:04;;;;;;;15.50;8.33;;;22.80;34.80;;;;;;8319631;28;20136;-46
2021/05/30 14:46:04;;;;;;;22.75;11.65;;;22.80;34.70;;;;;;8328948;28;20268;-46
2021/05/30 14:50:05;;;;;;;19.73;10.57;;;22.80;34.60;;;;;;8326109;28;20128;-46
2021/05/30 14:54:06;;;;;;;19.08;9.80;;;22.80;34.70;;;;;;8332949;28;20029;-46
2021/05/30 14:58:06;;;;;;;23.45;11.77;;;22.90;34.60;;;;;;8300938;28;20041;-48
2021/05/30 15:02:07;;;;;;;21.87;11.23;;;22.90;34.60;;;;;;8311494;28;20478;-46
2021/05/30 15:06:07;;;;;;;20.52;11.60;;;22.90;35.20;;;;;;8320641;28;20038;-46
2021/05/30 15:10:13;;;;;;;22.10;11.43;;;22.90;34.40;;;;;;8299507;28;20052;-46
2021/05/30 15:14:13;;;;;;;21.23;11.02;;;22.90;34.70;;;;;;8325407;28;20041;-46
2021/05/30 15:18:15;;;;;;;20.97;10.73;;;22.90;34.70;;;;;;8326943;28;20512;-47
2021/05/30 15:22:16;;;;;;;21.90;11.38;;;22.90;34.70;;;;;;8314962;28;20841;-47
2021/05/30 15:26:16;;;;;;;21.13;10.57;;;22.90;34.70;;;;;;8293371;28;20049;-47
2021/05/30 15:30:17;;;;;;;18.48;10.00;;;22.90;34.70;;;;;;8299245;28;20110;-46
2021/05/30 15:34:18;;;;;;;22.55;11.80;;;22.90;34.50;;;;;;8319712;28;20613;-46
2021/05/30 15:38:19;;;;;;;20.23;10.82;;;22.90;34.70;;;;;;8324480;28;20064;-46
2021/05/30 15:42:19;;;;;;;19.30;10.47;;;22.90;34.60;;;;;;8320848;28;20076;-46
2021/05/30 15:46:20;;;;;;;21.43;11.43;;;22.90;34.60;;;;;;8298457;28;20092;-46
2021/05/30 15:50:20;;;;;;;22.57;10.80;;;22.90;34.60;;;;;;8292573;28;20447;-47
2021/05/30 15:54:21;;;;;;;23.10;11.80;;;22.90;34.60;;;;;;8294778;28;20080;-48
2021/05/30 15:58:22;;;;;;;20.13;10.40;;;22.90;34.50;;;;;;8303524;28;20120;-47
2021/05/30 16:02:23;;;;;;;18.83;10.03;;;22.90;34.60;;;;;;8326562;28;20042;-46
2021/05/30 16:06:24;;;;;;;21.80;11.13;;;22.90;34.40;;;;;;8329421;28;20264;-46
2021/05/30 16:10:25;;;;;;;20.23;10.07;;;22.90;34.30;;;;;;8303364;28;20125;-46
2021/05/30 16:14:25;;;;;;;21.05;10.98;;;22.90;34.40;;;;;;8292037;28;20038;-46
2021/05/30 16:18:26;;;;;;;20.80;10.40;;;22.90;34.30;;;;;;8293826;28;20040;-46
2021/05/30 16:22:26;;;;;;;20.13;10.47;;;22.90;34.50;;;;;;8297610;28;20037;-46
2021/05/30 16:26:27;;;;;;;20.43;10.50;;;22.90;34.40;;;;;;8318455;28;20033;-46
2021/05/30 16:30:28;;;;;;;18.58;9.45;;;22.90;34.40;;;;;;8308929;28;20073;-45
2021/05/30 16:34:28;;;;;;;21.00;11.00;;;22.90;34.40;;;;;;8299652;28;20045;-47
2021/05/30 16:38:29;;;;;;;18.43;10.60;;;22.80;34.40;;;;;;8328298;28;20264;-45
2021/05/30 16:42:29;;;;;;;20.70;10.20;;;22.90;34.40;;;;;;8297720;28;20038;-47
2021/05/30 16:46:30;;;;;;;19.57;10.30;;;22.90;34.50;;;;;;8305011;28;20506;-47
2021/05/30 16:50:31;;;;;;;18.20;10.60;;;22.90;34.20;;;;;;8301604;28;20509;-49
2021/05/30 16:54:31;;;;;;;19.02;9.90;;;22.80;34.40;;;;;;8323600;28;20030;-47
2021/05/30 16:58:32;;;;;;;19.58;9.95;;;22.80;34.50;;;;;;8296953;28;20471;-46
2021/05/30 17:02:36;;;;;;;18.57;10.13;;;22.80;34.40;;;;;;8314526;28;20037;-46
2021/05/30 17:06:36;;;;;;;18.55;9.90;;;22.80;34.50;;;;;;8324520;28;20552;-47
2021/05/30 17:10:37;;;;;;;17.37;9.57;;;22.80;34.50;;;;;;8320180;28;20168;-49
2021/05/30 17:14:37;;;;;;;17.27;9.37;;;22.80;34.30;;;;;;8294981;28;20022;-47
2021/05/30 17:18:39;;;;;;;19.10;9.70;;;22.80;34.20;;;;;;8320006;28;20049;-47
2021/05/30 17:22:40;;;;;;;17.83;9.70;;;22.80;34.30;;;;;;8323370;28;20052;-48
2021/05/30 17:26:41;;;;;;;16.57;9.23;;;22.80;34.30;;;;;;8323985;28;20029;-47
2021/05/30 17:30:42;;;;;;;15.82;8.48;;;22.80;34.20;;;;;;8328996;28;20038;-46
2021/05/30 17:34:42;;;;;;;15.90;8.90;;;22.80;34.20;;;;;;8291145;28;20053;-46
2021/05/30 17:38:45;;;;;;;16.90;9.00;;;22.80;34.40;;;;;;8292266;28;20092;-47
2021/05/30 17:42:46;;;;;;;18.25;10.30;;;22.80;34.30;;;;;;8292401;28;20041;-48
2021/05/30 17:46:47;;;;;;;14.65;8.15;;;22.80;34.30;;;;;;8299727;28;20491;-47
2021/05/30 17:50:54;;;;;;;17.57;8.50;;;22.80;34.10;;;;;;8335034;28;20037;-47
2021/05/30 17:54:56;;;;;;;17.70;9.27;;;22.80;34.30;;;;;;8303607;28;20107;-46
2021/05/30 17:58:56;;;;;;;18.13;8.35;;;22.70;34.20;;;;;;8296716;28;20061;-46
2021/05/30 18:02:57;;;;;;;18.90;8.73;;;22.70;34.10;;;;;;8305273;28;20033;-46
2021/05/30 18:06:58;;;;;;;15.55;8.80;;;22.80;34.10;;;;;;8334584;28;20072;-47
2021/05/30 18:11:01;;;;;;;15.15;8.95;;;22.70;34.90;;;;;;8327477;28;20049;-50
2021/05/30 18:15:01;;;;;;;14.52;8.15;;;22.70;34.30;;;;;;8330087;28;20045;-47
2021/05/30 18:19:03;;;;;;;14.77;8.93;;;22.70;34.20;;;;;;8318213;28;20465;-47
2021/05/30 18:23:04;;;;;;;;;;;22.70;34.40;;;;;;8296408;28;20501;-47
2021/05/30 18:27:05;;;;;;;15.82;8.95;;;22.70;34.30;;;;;;8301638;28;19910;-48
2021/05/30 18:31:05;;;;;;;16.52;7.55;;;22.70;34.30;;;;;;8297666;28;20386;-46
2021/05/30 18:35:06;;;;;;;14.00;8.00;;;22.70;34.20;;;;;;8295850;28;20415;-47
2021/05/30 18:39:08;;;;;;;12.07;7.57;;;22.70;34.30;;;;;;8302373;28;20418;-47
2021/05/30 18:43:10;;;;;;;16.48;8.00;;;22.70;34.40;;;;;;8333342;28;20489;-47
2021/05/30 18:47:10;;;;;;;14.20;7.78;;;22.70;34.30;;;;;;8297804;28;20033;-45
2021/05/30 18:51:20;;;;;;;14.63;8.00;;;22.60;34.30;;;;;;8315613;28;20030;-46
2021/05/30 18:55:21;;;;;;;12.65;7.75;;;22.60;34.80;;;;;;8316433;28;20036;-46
2021/05/30 18:59:22;;;;;;;15.03;7.70;;;22.60;34.40;;;;;;8294906;28;20438;-47
2021/05/30 19:03:23;;;;;;;14.45;7.60;;;22.60;34.60;;;;;;8332667;28;20140;-46
2021/05/30 19:07:23;;;;;;;14.07;7.70;;;22.60;34.60;;;;;;8327858;28;20065;-46
2021/05/30 19:11:24;;;;;;;12.87;7.63;;;22.60;34.60;;;;;;8326466;28;20038;-46
2021/05/30 19:15:24;;;;;;;13.53;7.30;;;22.60;34.60;;;;;;8327543;28;20315;-46
2021/05/30 19:19:26;;;;;;;12.02;7.60;;;22.60;34.70;;;;;;8331418;28;20556;-46
2021/05/30 19:23:27;;;;;;;;;;;22.60;34.60;;;;;;8298568;28;20128;-46
2021/05/30 19:27:27;;;;;;;15.30;7.73;;;22.60;34.60;;;;;;8295378;28;20424;-49
2021/05/30 19:31:28;;;;;;;10.13;6.43;;;22.60;34.70;;;;;;8295598;28;20281;-46
2021/05/30 19:35:29;;;;;;;13.70;6.93;;;22.50;34.70;;;;;;8297407;28;20030;-49
2021/05/30 19:39:29;;;;;;;14.50;7.55;;;22.60;34.60;;;;;;8326318;28;20049;-46
2021/05/30 19:43:30;;;;;;;11.80;6.87;;;22.50;34.50;;;;;;8326178;28;20037;-47
2021/05/30 19:47:30;;;;;;;12.00;6.83;;;22.50;34.60;;;;;;8312909;28;20444;-46
2021/05/30 19:51:31;;;;;;;11.50;6.60;;;22.50;34.50;;;;;;8296287;28;20836;-46
2021/05/30 19:55:32;;;;;;;13.60;7.40;;;22.50;34.40;;;;;;8330942;28;20083;-47
2021/05/30 19:59:33;;;;;;;12.45;7.05;;;22.50;34.40;;;;;;8324149;28;20128;-46
2021/05/30 20:03:35;;;;;;;10.30;6.15;;;22.50;34.50;;;;;;8325606;28;20044;-46
2021/05/30 20:07:36;;;;;;;10.38;6.75;;;22.50;34.50;;;;;;8319373;28;20116;-46
2021/05/30 20:11:37;;;;;;;11.52;6.53;;;22.50;34.60;;;;;;8296166;28;20510;-46
2021/05/30 20:15:38;;;;;;;11.27;6.07;;;22.50;34.50;;;;;;8323000;28;20038;-47
2021/05/30 20:19:38;;;;;;;;;;;22.50;34.50;;;;;;8326733;28;20072;-47
2021/05/30 20:23:39;;;;;;;10.40;5.63;;;22.50;34.50;;;;;;8314463;28;19917;-48
2021/05/30 20:27:49;;;;;;;10.63;6.07;;;22.50;34.60;;;;;;8294712;28;20096;-46
2021/05/30 20:31:51;;;;;;;9.82;6.57;;;22.40;34.50;;;;;;8295840;28;20050;-46
2021/05/30 20:35:52;;;;;;;10.10;5.97;;;22.40;34.40;;;;;;8317721;28;20405;-46
2021/05/30 20:39:55;;;;;;;10.30;5.75;;;22.40;34.40;;;;;;8309868;28;20037;-46
2021/05/30 20:43:57;;;;;;;10.32;5.88;;;22.40;34.50;;;;;;8297392;28;20042;-46
2021/05/30 20:47:57;;;;;;;11.13;6.35;;;22.40;34.50;;;;;;8329908;28;20061;-46
2021/05/30 20:51:58;;;;;;;9.10;5.40;;;22.40;34.50;;;;;;8296444;28;20041;-46